sensor_id;sensor_type;location;lat;lon;timestamp;temperature;humidity
74171;DHT22;62526;50.948;6.590;2023-07-09T00:00:16;26.30;75.00
74171;DHT22;62526;50.948;6.590;2023-07-09T00:02:41;26.30;75.30
74171;DHT22;62526;50.948;6.590;2023-07-09T00:05:11;26.30;75.90
74171;DHT22;62526;50.948;6.590;2023-07-09T00:07:36;26.30;75.90
74171;DHT22;62526;50.948;6.590;2023-07-09T00:10:03;26.30;76.50
74171;DHT22;62526;50.948;6.590;2023-07-09T00:12:30;26.20;77.20
74171;DHT22;62526;50.948;6.590;2023-07-09T00:14:57;26.20;77.70
74171;DHT22;62526;50.948;6.590;2023-07-09T00:17:27;26.10;78.50
74171;DHT22;62526;50.948;6.590;2023-07-09T00:19:54;26.10;79.10
74171;DHT22;62526;50.948;6.590;2023-07-09T00:22:20;26.00;79.40
74171;DHT22;62526;50.948;6.590;2023-07-09T00:24:49;26.00;79.80
74171;DHT22;62526;50.948;6.590;2023-07-09T00:27:14;26.00;79.60
74171;DHT22;62526;50.948;6.590;2023-07-09T00:29:41;26.00;80.00
74171;DHT22;62526;50.948;6.590;2023-07-09T00:32:13;25.90;80.40
74171;DHT22;62526;50.948;6.590;2023-07-09T00:34:40;25.90;80.80
74171;DHT22;62526;50.948;6.590;2023-07-09T00:37:12;25.90;81.40
74171;DHT22;62526;50.948;6.590;2023-07-09T00:39:40;25.80;81.90
74171;DHT22;62526;50.948;6.590;2023-07-09T00:42:11;25.80;82.50
74171;DHT22;62526;50.948;6.590;2023-07-09T00:44:36;25.80;83.20
74171;DHT22;62526;50.948;6.590;2023-07-09T00:47:15;25.80;83.20
74171;DHT22;62526;50.948;6.590;2023-07-09T00:49:39;25.80;83.70
74171;DHT22;62526;50.948;6.590;2023-07-09T00:52:24;25.70;84.20
74171;DHT22;62526;50.948;6.590;2023-07-09T00:54:50;25.70;85.40
74171;DHT22;62526;50.948;6.590;2023-07-09T00:57:17;25.70;85.10
74171;DHT22;62526;50.948;6.590;2023-07-09T00:59:46;25.70;85.70
74171;DHT22;62526;50.948;6.590;2023-07-09T01:02:12;25.60;86.10
74171;DHT22;62526;50.948;6.590;2023-07-09T01:04:40;25.60;86.70
74171;DHT22;62526;50.948;6.590;2023-07-09T01:07:06;25.60;86.80
74171;DHT22;62526;50.948;6.590;2023-07-09T01:09:33;25.60;87.20
74171;DHT22;62526;50.948;6.590;2023-07-09T01:12:07;25.50;87.90
74171;DHT22;62526;50.948;6.590;2023-07-09T01:14:27;25.40;89.40
74171;DHT22;62526;50.948;6.590;2023-07-09T01:16:55;25.40;90.00
74171;DHT22;62526;50.948;6.590;2023-07-09T01:19:22;25.20;90.70
74171;DHT22;62526;50.948;6.590;2023-07-09T01:21:49;25.20;91.00
74171;DHT22;62526;50.948;6.590;2023-07-09T01:24:45;25.10;91.70
74171;DHT22;62526;50.948;6.590;2023-07-09T01:26:43;25.00;91.90
74171;DHT22;62526;50.948;6.590;2023-07-09T01:29:10;25.00;92.40
74171;DHT22;62526;50.948;6.590;2023-07-09T01:31:37;25.00;93.00
74171;DHT22;62526;50.948;6.590;2023-07-09T01:34:05;25.00;93.20
74171;DHT22;62526;50.948;6.590;2023-07-09T01:36:32;25.00;92.30
74171;DHT22;62526;50.948;6.590;2023-07-09T01:38:59;25.00;93.90
74171;DHT22;62526;50.948;6.590;2023-07-09T01:41:25;25.00;94.20
74171;DHT22;62526;50.948;6.590;2023-07-09T01:43:52;24.90;94.40
74171;DHT22;62526;50.948;6.590;2023-07-09T01:46:19;24.80;95.00
74171;DHT22;62526;50.948;6.590;2023-07-09T01:48:45;24.80;95.30
74171;DHT22;62526;50.948;6.590;2023-07-09T01:51:14;24.80;95.60
74171;DHT22;62526;50.948;6.590;2023-07-09T01:53:39;24.70;96.10
74171;DHT22;62526;50.948;6.590;2023-07-09T01:56:06;24.70;96.30
74171;DHT22;62526;50.948;6.590;2023-07-09T01:58:35;24.70;96.50
74171;DHT22;62526;50.948;6.590;2023-07-09T02:01:01;24.70;96.90
74171;DHT22;62526;50.948;6.590;2023-07-09T02:03:28;24.60;97.30
74171;DHT22;62526;50.948;6.590;2023-07-09T02:05:55;24.60;97.80
74171;DHT22;62526;50.948;6.590;2023-07-09T02:08:22;24.60;97.60
74171;DHT22;62526;50.948;6.590;2023-07-09T02:10:48;24.60;97.80
74171;DHT22;62526;50.948;6.590;2023-07-09T02:13:15;24.60;97.70
74171;DHT22;62526;50.948;6.590;2023-07-09T02:15:43;24.60;97.80
74171;DHT22;62526;50.948;6.590;2023-07-09T02:18:10;24.60;98.20
74171;DHT22;62526;50.948;6.590;2023-07-09T02:20:36;24.50;98.30
74171;DHT22;62526;50.948;6.590;2023-07-09T02:23:03;24.50;98.50
74171;DHT22;62526;50.948;6.590;2023-07-09T02:25:29;24.50;98.70
74171;DHT22;62526;50.948;6.590;2023-07-09T02:27:57;24.50;98.90
74171;DHT22;62526;50.948;6.590;2023-07-09T02:30:24;24.50;99.20
74171;DHT22;62526;50.948;6.590;2023-07-09T02:32:50;24.40;99.90
74171;DHT22;62526;50.948;6.590;2023-07-09T02:35:18;24.30;99.90
74171;DHT22;62526;50.948;6.590;2023-07-09T02:37:45;24.30;99.90
74171;DHT22;62526;50.948;6.590;2023-07-09T02:40:12;24.30;99.90
74171;DHT22;62526;50.948;6.590;2023-07-09T02:42:38;24.30;99.90
74171;DHT22;62526;50.948;6.590;2023-07-09T02:45:05;24.30;99.90
74171;DHT22;62526;50.948;6.590;2023-07-09T02:47:32;24.30;99.90
74171;DHT22;62526;50.948;6.590;2023-07-09T02:49:58;24.30;99.90
74171;DHT22;62526;50.948;6.590;2023-07-09T02:52:25;24.30;99.90
74171;DHT22;62526;50.948;6.590;2023-07-09T02:54:52;24.30;99.90
74171;DHT22;62526;50.948;6.590;2023-07-09T02:57:18;24.20;99.90
74171;DHT22;62526;50.948;6.590;2023-07-09T02:59:46;24.20;99.90
74171;DHT22;62526;50.948;6.590;2023-07-09T03:02:12;24.10;99.90
74171;DHT22;62526;50.948;6.590;2023-07-09T03:04:39;24.10;99.90
74171;DHT22;62526;50.948;6.590;2023-07-09T03:07:06;24.10;99.90
74171;DHT22;62526;50.948;6.590;2023-07-09T03:09:33;24.00;99.90
74171;DHT22;62526;50.948;6.590;2023-07-09T03:12:00;24.00;99.90
74171;DHT22;62526;50.948;6.590;2023-07-09T03:14:26;24.00;99.90
74171;DHT22;62526;50.948;6.590;2023-07-09T03:16:53;24.00;99.90
74171;DHT22;62526;50.948;6.590;2023-07-09T03:19:19;24.00;99.90
74171;DHT22;62526;50.948;6.590;2023-07-09T03:21:47;24.00;99.90
74171;DHT22;62526;50.948;6.590;2023-07-09T03:24:14;24.00;99.90
74171;DHT22;62526;50.948;6.590;2023-07-09T03:26:41;24.00;99.90
74171;DHT22;62526;50.948;6.590;2023-07-09T03:29:08;24.00;99.90
74171;DHT22;62526;50.948;6.590;2023-07-09T03:31:34;24.00;99.90
74171;DHT22;62526;50.948;6.590;2023-07-09T03:34:02;24.00;99.90
74171;DHT22;62526;50.948;6.590;2023-07-09T03:36:29;24.00;99.90
74171;DHT22;62526;50.948;6.590;2023-07-09T03:38:56;23.90;99.90
74171;DHT22;62526;50.948;6.590;2023-07-09T03:41:22;24.00;99.90
74171;DHT22;62526;50.948;6.590;2023-07-09T03:43:49;25.80;99.90
74171;DHT22;62526;50.948;6.590;2023-07-09T03:46:15;23.90;99.90
74171;DHT22;62526;50.948;6.590;2023-07-09T03:48:42;23.90;99.90
74171;DHT22;62526;50.948;6.590;2023-07-09T03:51:09;23.90;99.90
74171;DHT22;62526;50.948;6.590;2023-07-09T03:53:35;23.90;99.90
74171;DHT22;62526;50.948;6.590;2023-07-09T03:56:02;23.90;99.90
74171;DHT22;62526;50.948;6.590;2023-07-09T03:58:29;23.90;99.90
74171;DHT22;62526;50.948;6.590;2023-07-09T04:00:55;23.90;99.90
74171;DHT22;62526;50.948;6.590;2023-07-09T04:03:23;23.90;99.90
74171;DHT22;62526;50.948;6.590;2023-07-09T04:05:50;23.90;99.90
74171;DHT22;62526;50.948;6.590;2023-07-09T04:08:16;23.90;99.90
74171;DHT22;62526;50.948;6.590;2023-07-09T04:10:43;23.90;99.90
74171;DHT22;62526;50.948;6.590;2023-07-09T04:13:09;23.90;99.90
74171;DHT22;62526;50.948;6.590;2023-07-09T04:15:36;23.90;99.90
74171;DHT22;62526;50.948;6.590;2023-07-09T04:18:03;24.00;99.90
74171;DHT22;62526;50.948;6.590;2023-07-09T04:20:30;24.00;99.90
74171;DHT22;62526;50.948;6.590;2023-07-09T04:22:57;24.00;99.90
74171;DHT22;62526;50.948;6.590;2023-07-09T04:25:24;24.00;99.90
74171;DHT22;62526;50.948;6.590;2023-07-09T04:27:51;24.00;99.90
74171;DHT22;62526;50.948;6.590;2023-07-09T04:30:17;24.00;99.90
74171;DHT22;62526;50.948;6.590;2023-07-09T04:32:44;24.00;99.90
74171;DHT22;62526;50.948;6.590;2023-07-09T04:35:17;24.00;99.90
74171;DHT22;62526;50.948;6.590;2023-07-09T04:37:43;24.10;99.90
74171;DHT22;62526;50.948;6.590;2023-07-09T04:40:11;24.10;99.90
74171;DHT22;62526;50.948;6.590;2023-07-09T04:42:38;24.10;99.90
74171;DHT22;62526;50.948;6.590;2023-07-09T04:45:06;24.10;99.90
74171;DHT22;62526;50.948;6.590;2023-07-09T04:47:32;24.20;99.90
74171;DHT22;62526;50.948;6.590;2023-07-09T04:49:59;24.20;99.90
74171;DHT22;62526;50.948;6.590;2023-07-09T04:52:26;24.20;99.90
74171;DHT22;62526;50.948;6.590;2023-07-09T04:54:53;24.30;99.90
74171;DHT22;62526;50.948;6.590;2023-07-09T04:57:19;24.30;99.90
74171;DHT22;62526;50.948;6.590;2023-07-09T04:59:48;24.30;99.90
74171;DHT22;62526;50.948;6.590;2023-07-09T05:02:15;24.30;99.90
74171;DHT22;62526;50.948;6.590;2023-07-09T05:04:41;24.30;99.90
74171;DHT22;62526;50.948;6.590;2023-07-09T05:07:08;24.40;99.90
74171;DHT22;62526;50.948;6.590;2023-07-09T05:09:35;24.40;99.90
74171;DHT22;62526;50.948;6.590;2023-07-09T05:12:01;24.50;99.90
74171;DHT22;62526;50.948;6.590;2023-07-09T05:14:28;24.50;99.90
74171;DHT22;62526;50.948;6.590;2023-07-09T05:16:55;24.50;99.90
74171;DHT22;62526;50.948;6.590;2023-07-09T05:19:22;24.60;99.90
74171;DHT22;62526;50.948;6.590;2023-07-09T05:21:48;24.60;99.90
74171;DHT22;62526;50.948;6.590;2023-07-09T05:24:15;24.70;99.90
74171;DHT22;62526;50.948;6.590;2023-07-09T05:26:42;24.80;99.90
74171;DHT22;62526;50.948;6.590;2023-07-09T05:29:08;24.90;99.90
74171;DHT22;62526;50.948;6.590;2023-07-09T05:31:35;24.80;99.90
74171;DHT22;62526;50.948;6.590;2023-07-09T05:34:07;24.90;99.90
74171;DHT22;62526;50.948;6.590;2023-07-09T05:36:33;25.10;99.90
74171;DHT22;62526;50.948;6.590;2023-07-09T05:39:01;25.20;99.90
74171;DHT22;62526;50.948;6.590;2023-07-09T05:41:28;25.20;99.90
74171;DHT22;62526;50.948;6.590;2023-07-09T05:43:55;25.30;99.90
74171;DHT22;62526;50.948;6.590;2023-07-09T05:46:22;25.40;99.90
74171;DHT22;62526;50.948;6.590;2023-07-09T05:48:48;25.60;99.90
74171;DHT22;62526;50.948;6.590;2023-07-09T05:51:15;25.70;99.90
74171;DHT22;62526;50.948;6.590;2023-07-09T05:53:41;25.70;99.90
74171;DHT22;62526;50.948;6.590;2023-07-09T05:56:08;25.90;99.90
74171;DHT22;62526;50.948;6.590;2023-07-09T05:58:36;25.90;99.90
74171;DHT22;62526;50.948;6.590;2023-07-09T06:01:02;26.10;99.90
74171;DHT22;62526;50.948;6.590;2023-07-09T06:03:29;26.10;99.90
74171;DHT22;62526;50.948;6.590;2023-07-09T06:05:55;26.20;99.90
74171;DHT22;62526;50.948;6.590;2023-07-09T06:08:22;26.30;99.90
74171;DHT22;62526;50.948;6.590;2023-07-09T06:10:57;26.40;99.90
74171;DHT22;62526;50.948;6.590;2023-07-09T06:13:22;26.40;99.90
74171;DHT22;62526;50.948;6.590;2023-07-09T06:15:50;26.50;99.90
74171;DHT22;62526;50.948;6.590;2023-07-09T06:18:16;26.70;99.90
74171;DHT22;62526;50.948;6.590;2023-07-09T06:20:52;26.80;99.90
74171;DHT22;62526;50.948;6.590;2023-07-09T06:23:18;26.90;99.90
74171;DHT22;62526;50.948;6.590;2023-07-09T06:25:44;26.90;99.90
74171;DHT22;62526;50.948;6.590;2023-07-09T06:28:13;27.00;99.90
74171;DHT22;62526;50.948;6.590;2023-07-09T06:30:39;27.20;99.90
74171;DHT22;62526;50.948;6.590;2023-07-09T06:33:05;27.10;99.90
74171;DHT22;62526;50.948;6.590;2023-07-09T06:35:32;27.30;99.90
74171;DHT22;62526;50.948;6.590;2023-07-09T06:37:58;27.50;99.90
74171;DHT22;62526;50.948;6.590;2023-07-09T06:40:25;27.50;99.90
74171;DHT22;62526;50.948;6.590;2023-07-09T06:42:53;27.70;99.90
74171;DHT22;62526;50.948;6.590;2023-07-09T06:45:19;27.80;99.90
74171;DHT22;62526;50.948;6.590;2023-07-09T06:47:46;28.00;99.90
74171;DHT22;62526;50.948;6.590;2023-07-09T06:50:12;28.10;99.90
74171;DHT22;62526;50.948;6.590;2023-07-09T06:52:39;28.10;99.90
74171;DHT22;62526;50.948;6.590;2023-07-09T06:55:06;28.30;99.80
74171;DHT22;62526;50.948;6.590;2023-07-09T06:57:33;28.30;99.90
74171;DHT22;62526;50.948;6.590;2023-07-09T06:59:59;28.50;99.00
74171;DHT22;62526;50.948;6.590;2023-07-09T07:02:26;28.60;99.10
74171;DHT22;62526;50.948;6.590;2023-07-09T07:04:53;28.60;99.00
74171;DHT22;62526;50.948;6.590;2023-07-09T07:07:21;28.70;99.40
74171;DHT22;62526;50.948;6.590;2023-07-09T07:09:48;29.00;98.30
74171;DHT22;62526;50.948;6.590;2023-07-09T07:12:24;29.00;97.70
74171;DHT22;62526;50.948;6.590;2023-07-09T07:14:49;29.10;97.80
74171;DHT22;62526;50.948;6.590;2023-07-09T07:17:16;29.30;97.50
74171;DHT22;62526;50.948;6.590;2023-07-09T07:19:44;29.40;97.50
74171;DHT22;62526;50.948;6.590;2023-07-09T07:22:11;29.40;97.80
74171;DHT22;62526;50.948;6.590;2023-07-09T07:24:37;29.60;97.10
74171;DHT22;62526;50.948;6.590;2023-07-09T07:27:04;29.60;97.40
74171;DHT22;62526;50.948;6.590;2023-07-09T07:29:32;29.70;97.40
74171;DHT22;62526;50.948;6.590;2023-07-09T07:31:58;29.80;97.20
74171;DHT22;62526;50.948;6.590;2023-07-09T07:34:25;29.90;96.40
74171;DHT22;62526;50.948;6.590;2023-07-09T07:36:59;30.00;96.40
74171;DHT22;62526;50.948;6.590;2023-07-09T07:39:26;30.10;96.40
74171;DHT22;62526;50.948;6.590;2023-07-09T07:41:53;30.30;96.40
74171;DHT22;62526;50.948;6.590;2023-07-09T07:44:19;30.40;95.60
74171;DHT22;62526;50.948;6.590;2023-07-09T07:46:46;30.50;95.20
74171;DHT22;62526;50.948;6.590;2023-07-09T07:49:13;30.60;94.90
74171;DHT22;62526;50.948;6.590;2023-07-09T07:51:41;30.80;93.70
74171;DHT22;62526;50.948;6.590;2023-07-09T07:54:07;30.80;93.90
74171;DHT22;62526;50.948;6.590;2023-07-09T07:56:35;30.90;93.90
74171;DHT22;62526;50.948;6.590;2023-07-09T07:59:02;31.00;93.70
74171;DHT22;62526;50.948;6.590;2023-07-09T08:01:29;31.10;93.60
74171;DHT22;62526;50.948;6.590;2023-07-09T08:03:57;31.30;93.70
74171;DHT22;62526;50.948;6.590;2023-07-09T08:06:24;31.30;93.60
74171;DHT22;62526;50.948;6.590;2023-07-09T08:08:50;31.50;93.10
74171;DHT22;62526;50.948;6.590;2023-07-09T08:11:17;31.60;92.40
74171;DHT22;62526;50.948;6.590;2023-07-09T08:13:43;31.60;92.10
74171;DHT22;62526;50.948;6.590;2023-07-09T08:16:10;31.80;92.50
74171;DHT22;62526;50.948;6.590;2023-07-09T08:18:37;31.90;91.60
74171;DHT22;62526;50.948;6.590;2023-07-09T08:21:04;31.90;91.30
74171;DHT22;62526;50.948;6.590;2023-07-09T08:23:32;32.00;90.20
74171;DHT22;62526;50.948;6.590;2023-07-09T08:25:59;32.10;90.00
74171;DHT22;62526;50.948;6.590;2023-07-09T08:28:26;32.20;89.70
74171;DHT22;62526;50.948;6.590;2023-07-09T08:30:53;32.30;88.70
74171;DHT22;62526;50.948;6.590;2023-07-09T08:33:31;32.40;87.20
74171;DHT22;62526;50.948;6.590;2023-07-09T08:35:58;32.40;85.50
74171;DHT22;62526;50.948;6.590;2023-07-09T08:38:25;32.60;86.20
74171;DHT22;62526;50.948;6.590;2023-07-09T08:40:55;30.20;84.50
74171;DHT22;62526;50.948;6.590;2023-07-09T08:43:39;32.80;87.10
74171;DHT22;62526;50.948;6.590;2023-07-09T08:46:16;33.00;85.50
74171;DHT22;62526;50.948;6.590;2023-07-09T08:48:44;33.00;85.00
74171;DHT22;62526;50.948;6.590;2023-07-09T08:51:17;33.10;83.40
74171;DHT22;62526;50.948;6.590;2023-07-09T08:53:59;33.30;83.50
74171;DHT22;62526;50.948;6.590;2023-07-09T08:56:27;33.40;82.60
74171;DHT22;62526;50.948;6.590;2023-07-09T08:58:55;33.60;82.00
74171;DHT22;62526;50.948;6.590;2023-07-09T09:01:24;33.70;80.50
74171;DHT22;62526;50.948;6.590;2023-07-09T09:03:53;33.80;80.70
74171;DHT22;62526;50.948;6.590;2023-07-09T09:06:22;34.00;79.30
74171;DHT22;62526;50.948;6.590;2023-07-09T09:08:53;34.10;79.80
74171;DHT22;62526;50.948;6.590;2023-07-09T09:11:29;34.30;78.80
74171;DHT22;62526;50.948;6.590;2023-07-09T09:13:54;34.40;77.50
74171;DHT22;62526;50.948;6.590;2023-07-09T09:16:30;34.50;77.30
74171;DHT22;62526;50.948;6.590;2023-07-09T09:18:55;34.60;73.10
74171;DHT22;62526;50.948;6.590;2023-07-09T09:21:29;34.80;72.60
74171;DHT22;62526;50.948;6.590;2023-07-09T09:23:54;34.80;74.10
74171;DHT22;62526;50.948;6.590;2023-07-09T09:26:23;35.00;73.20
74171;DHT22;62526;50.948;6.590;2023-07-09T09:28:49;35.10;73.80
74171;DHT22;62526;50.948;6.590;2023-07-09T09:31:15;35.30;72.60
74171;DHT22;62526;50.948;6.590;2023-07-09T09:33:47;35.40;71.70
74171;DHT22;62526;50.948;6.590;2023-07-09T09:36:16;35.50;69.60
74171;DHT22;62526;50.948;6.590;2023-07-09T09:38:41;35.70;70.60
74171;DHT22;62526;50.948;6.590;2023-07-09T09:41:14;35.80;70.20
74171;DHT22;62526;50.948;6.590;2023-07-09T09:43:41;36.00;67.10
74171;DHT22;62526;50.948;6.590;2023-07-09T09:46:07;36.00;67.00
74171;DHT22;62526;50.948;6.590;2023-07-09T09:48:34;36.20;62.70
74171;DHT22;62526;50.948;6.590;2023-07-09T09:51:03;36.40;58.20
74171;DHT22;62526;50.948;6.590;2023-07-09T09:53:28;36.40;58.70
74171;DHT22;62526;50.948;6.590;2023-07-09T09:55:55;36.60;59.60
74171;DHT22;62526;50.948;6.590;2023-07-09T09:58:24;36.70;59.80
74171;DHT22;62526;50.948;6.590;2023-07-09T10:00:49;36.90;58.80
74171;DHT22;62526;50.948;6.590;2023-07-09T10:03:15;37.10;58.80
74171;DHT22;62526;50.948;6.590;2023-07-09T10:05:47;37.10;59.20
74171;DHT22;62526;50.948;6.590;2023-07-09T10:08:18;37.30;56.80
74171;DHT22;62526;50.948;6.590;2023-07-09T10:10:42;37.40;57.70
74171;DHT22;62526;50.948;6.590;2023-07-09T10:13:29;37.50;57.90
74171;DHT22;62526;50.948;6.590;2023-07-09T10:16:16;37.50;56.90
74171;DHT22;62526;50.948;6.590;2023-07-09T10:18:40;37.40;57.90
74171;DHT22;62526;50.948;6.590;2023-07-09T10:21:07;37.50;58.00
74171;DHT22;62526;50.948;6.590;2023-07-09T10:23:44;37.60;56.20
74171;DHT22;62526;50.948;6.590;2023-07-09T10:26:29;37.80;55.10
74171;DHT22;62526;50.948;6.590;2023-07-09T10:29:03;38.00;55.70
74171;DHT22;62526;50.948;6.590;2023-07-09T10:31:41;38.20;52.40
74171;DHT22;62526;50.948;6.590;2023-07-09T10:34:18;38.20;53.60
74171;DHT22;62526;50.948;6.590;2023-07-09T10:37:00;38.30;50.20
74171;DHT22;62526;50.948;6.590;2023-07-09T10:39:26;38.40;52.30
74171;DHT22;62526;50.948;6.590;2023-07-09T10:41:51;38.50;49.50
74171;DHT22;62526;50.948;6.590;2023-07-09T10:44:20;38.70;47.70
74171;DHT22;62526;50.948;6.590;2023-07-09T10:46:47;38.70;46.20
74171;DHT22;62526;50.948;6.590;2023-07-09T10:49:12;38.80;46.80
74171;DHT22;62526;50.948;6.590;2023-07-09T10:51:40;38.90;45.60
74171;DHT22;62526;50.948;6.590;2023-07-09T10:54:15;39.10;46.40
74171;DHT22;62526;50.948;6.590;2023-07-09T10:56:37;39.20;46.10
74171;DHT22;62526;50.948;6.590;2023-07-09T11:01:56;39.70;44.70
74171;DHT22;62526;50.948;6.590;2023-07-09T11:07:10;39.80;42.50
74171;DHT22;62526;50.948;6.590;2023-07-09T11:09:35;39.80;42.30
74171;DHT22;62526;50.948;6.590;2023-07-09T11:12:03;39.90;40.00
74171;DHT22;62526;50.948;6.590;2023-07-09T11:14:47;40.20;41.20
74171;DHT22;62526;50.948;6.590;2023-07-09T11:17:17;40.20;41.60
74171;DHT22;62526;50.948;6.590;2023-07-09T11:19:42;40.30;40.70
74171;DHT22;62526;50.948;6.590;2023-07-09T11:22:27;40.50;40.50
74171;DHT22;62526;50.948;6.590;2023-07-09T11:25:03;40.60;40.40
74171;DHT22;62526;50.948;6.590;2023-07-09T11:27:24;40.80;40.00
74171;DHT22;62526;50.948;6.590;2023-07-09T11:30:00;41.10;41.40
74171;DHT22;62526;50.948;6.590;2023-07-09T11:32:25;41.30;39.90
74171;DHT22;62526;50.948;6.590;2023-07-09T11:34:52;41.50;39.10
74171;DHT22;62526;50.948;6.590;2023-07-09T11:37:20;41.20;36.10
74171;DHT22;62526;50.948;6.590;2023-07-09T11:39:47;41.10;37.40
74171;DHT22;62526;50.948;6.590;2023-07-09T11:42:23;41.40;36.70
74171;DHT22;62526;50.948;6.590;2023-07-09T11:44:58;41.50;36.80
74171;DHT22;62526;50.948;6.590;2023-07-09T11:47:25;41.70;37.30
74171;DHT22;62526;50.948;6.590;2023-07-09T11:49:52;41.70;36.30
74171;DHT22;62526;50.948;6.590;2023-07-09T11:52:27;41.50;35.60
74171;DHT22;62526;50.948;6.590;2023-07-09T11:54:55;41.50;36.10
74171;DHT22;62526;50.948;6.590;2023-07-09T11:57:21;41.50;37.80
74171;DHT22;62526;50.948;6.590;2023-07-09T11:59:48;41.60;38.40
74171;DHT22;62526;50.948;6.590;2023-07-09T12:02:18;41.80;38.10
74171;DHT22;62526;50.948;6.590;2023-07-09T12:04:44;42.00;37.20
74171;DHT22;62526;50.948;6.590;2023-07-09T12:07:12;42.10;36.30
74171;DHT22;62526;50.948;6.590;2023-07-09T12:09:39;42.30;36.10
74171;DHT22;62526;50.948;6.590;2023-07-09T12:12:15;42.40;36.00
74171;DHT22;62526;50.948;6.590;2023-07-09T12:14:32;42.40;37.20
74171;DHT22;62526;50.948;6.590;2023-07-09T12:16:59;42.30;35.30
74171;DHT22;62526;50.948;6.590;2023-07-09T12:19:28;42.30;35.00
74171;DHT22;62526;50.948;6.590;2023-07-09T12:21:57;42.40;34.30
74171;DHT22;62526;50.948;6.590;2023-07-09T12:24:25;42.40;34.40
74171;DHT22;62526;50.948;6.590;2023-07-09T12:26:56;42.30;34.40
74171;DHT22;62526;50.948;6.590;2023-07-09T12:29:25;42.00;33.60
74171;DHT22;62526;50.948;6.590;2023-07-09T12:31:53;41.80;34.60
74171;DHT22;62526;50.948;6.590;2023-07-09T12:34:20;41.80;34.40
74171;DHT22;62526;50.948;6.590;2023-07-09T12:36:49;41.20;34.00
74171;DHT22;62526;50.948;6.590;2023-07-09T12:39:14;40.80;34.50
74171;DHT22;62526;50.948;6.590;2023-07-09T12:41:42;42.00;36.70
74171;DHT22;62526;50.948;6.590;2023-07-09T12:44:18;40.60;35.90
74171;DHT22;62526;50.948;6.590;2023-07-09T12:46:50;40.10;36.10
74171;DHT22;62526;50.948;6.590;2023-07-09T12:49:30;39.70;36.40
74171;DHT22;62526;50.948;6.590;2023-07-09T12:51:58;39.40;37.90
74171;DHT22;62526;50.948;6.590;2023-07-09T12:54:24;39.10;38.70
74171;DHT22;62526;50.948;6.590;2023-07-09T12:56:51;39.00;39.20
74171;DHT22;62526;50.948;6.590;2023-07-09T12:59:20;38.90;39.60
74171;DHT22;62526;50.948;6.590;2023-07-09T13:01:50;38.70;39.80
74171;DHT22;62526;50.948;6.590;2023-07-09T13:04:17;38.60;39.80
74171;DHT22;62526;50.948;6.590;2023-07-09T13:06:44;38.40;39.60
74171;DHT22;62526;50.948;6.590;2023-07-09T13:09:19;38.30;39.60
74171;DHT22;62526;50.948;6.590;2023-07-09T13:11:48;38.20;40.10
74171;DHT22;62526;50.948;6.590;2023-07-09T13:14:20;38.00;39.70
74171;DHT22;62526;50.948;6.590;2023-07-09T13:16:48;37.90;40.60
74171;DHT22;62526;50.948;6.590;2023-07-09T13:19:16;37.70;44.90
74171;DHT22;62526;50.948;6.590;2023-07-09T13:21:44;36.30;47.90
74171;DHT22;62526;50.948;6.590;2023-07-09T13:24:17;32.70;55.10
74171;DHT22;62526;50.948;6.590;2023-07-09T13:26:42;29.80;64.00
74171;DHT22;62526;50.948;6.590;2023-07-09T13:29:12;28.10;72.00
74171;DHT22;62526;50.948;6.590;2023-07-09T13:31:39;27.10;82.00
74171;DHT22;62526;50.948;6.590;2023-07-09T13:34:08;26.60;92.20
74171;DHT22;62526;50.948;6.590;2023-07-09T13:36:32;26.60;92.50
74171;DHT22;62526;50.948;6.590;2023-07-09T13:38:59;26.30;98.40
74171;DHT22;62526;50.948;6.590;2023-07-09T13:41:25;26.10;99.90
74171;DHT22;62526;50.948;6.590;2023-07-09T13:43:52;26.10;99.90
74171;DHT22;62526;50.948;6.590;2023-07-09T13:46:19;25.90;99.90
74171;DHT22;62526;50.948;6.590;2023-07-09T13:48:46;26.00;99.90
74171;DHT22;62526;50.948;6.590;2023-07-09T13:51:22;26.00;99.90
74171;DHT22;62526;50.948;6.590;2023-07-09T13:53:50;26.10;99.90
74171;DHT22;62526;50.948;6.590;2023-07-09T13:56:16;26.30;99.90
74171;DHT22;62526;50.948;6.590;2023-07-09T13:58:44;26.60;99.90
74171;DHT22;62526;50.948;6.590;2023-07-09T14:01:13;26.70;99.90
74171;DHT22;62526;50.948;6.590;2023-07-09T14:03:38;26.80;99.90
74171;DHT22;62526;50.948;6.590;2023-07-09T14:06:08;26.80;99.90
74171;DHT22;62526;50.948;6.590;2023-07-09T14:08:32;26.80;99.90
74171;DHT22;62526;50.948;6.590;2023-07-09T14:10:59;26.70;99.90
74171;DHT22;62526;50.948;6.590;2023-07-09T14:13:26;26.60;99.90
74171;DHT22;62526;50.948;6.590;2023-07-09T14:15:53;26.50;99.90
74171;DHT22;62526;50.948;6.590;2023-07-09T14:18:21;26.30;99.90
74171;DHT22;62526;50.948;6.590;2023-07-09T14:20:46;26.20;99.90
74171;DHT22;62526;50.948;6.590;2023-07-09T14:23:14;25.90;99.90
74171;DHT22;62526;50.948;6.590;2023-07-09T14:25:41;25.80;99.90
74171;DHT22;62526;50.948;6.590;2023-07-09T14:28:10;25.80;99.90
74171;DHT22;62526;50.948;6.590;2023-07-09T14:30:36;25.70;99.90
74171;DHT22;62526;50.948;6.590;2023-07-09T14:33:04;25.60;99.90
74171;DHT22;62526;50.948;6.590;2023-07-09T14:35:30;25.50;99.90
74171;DHT22;62526;50.948;6.590;2023-07-09T14:37:57;25.00;99.90
74171;DHT22;62526;50.948;6.590;2023-07-09T14:40:24;25.00;99.90
74171;DHT22;62526;50.948;6.590;2023-07-09T14:42:51;25.20;99.90
74171;DHT22;62526;50.948;6.590;2023-07-09T14:45:20;25.10;99.90
74171;DHT22;62526;50.948;6.590;2023-07-09T14:47:47;25.10;99.90
74171;DHT22;62526;50.948;6.590;2023-07-09T14:50:15;25.20;99.90
74171;DHT22;62526;50.948;6.590;2023-07-09T14:52:42;24.60;99.90
74171;DHT22;62526;50.948;6.590;2023-07-09T14:55:13;24.70;99.90
74171;DHT22;62526;50.948;6.590;2023-07-09T14:57:36;24.70;99.90
74171;DHT22;62526;50.948;6.590;2023-07-09T15:00:03;24.70;99.90
74171;DHT22;62526;50.948;6.590;2023-07-09T15:02:33;24.50;99.90
74171;DHT22;62526;50.948;6.590;2023-07-09T15:04:57;24.20;99.90
74171;DHT22;62526;50.948;6.590;2023-07-09T15:07:25;24.00;99.90
74171;DHT22;62526;50.948;6.590;2023-07-09T15:10:00;24.00;99.90
74171;DHT22;62526;50.948;6.590;2023-07-09T15:12:30;24.20;99.90
74171;DHT22;62526;50.948;6.590;2023-07-09T15:14:57;24.30;99.90
74171;DHT22;62526;50.948;6.590;2023-07-09T15:17:22;24.50;99.90
74171;DHT22;62526;50.948;6.590;2023-07-09T15:19:48;24.70;99.90
74171;DHT22;62526;50.948;6.590;2023-07-09T15:22:24;24.80;99.90
74171;DHT22;62526;50.948;6.590;2023-07-09T15:24:47;24.80;99.90
74171;DHT22;62526;50.948;6.590;2023-07-09T15:27:14;25.10;99.90
74171;DHT22;62526;50.948;6.590;2023-07-09T15:29:41;25.40;99.90
74171;DHT22;62526;50.948;6.590;2023-07-09T15:32:08;25.60;99.90
74171;DHT22;62526;50.948;6.590;2023-07-09T15:34:35;25.70;99.90
74171;DHT22;62526;50.948;6.590;2023-07-09T15:37:04;25.90;99.90
74171;DHT22;62526;50.948;6.590;2023-07-09T15:39:30;26.00;99.90